createdAt,value
2018-07-17T00:01:46.824Z,64.80
2018-07-17T00:04:15.025Z,64.80
2018-07-17T00:06:43.266Z,65.00
2018-07-17T00:09:11.480Z,65.00
2018-07-17T00:11:39.760Z,64.90
2018-07-17T00:14:07.989Z,64.80
2018-07-17T00:16:36.228Z,64.70
2018-07-17T00:19:04.457Z,64.60
2018-07-17T00:21:32.682Z,64.40
2018-07-17T00:24:01.522Z,64.40
2018-07-17T00:26:29.785Z,64.30
2018-07-17T00:28:58.020Z,64.30
2018-07-17T00:31:26.258Z,64.30
2018-07-17T00:33:54.497Z,64.60
2018-07-17T00:36:22.908Z,64.70
2018-07-17T00:38:51.356Z,64.90
2018-07-17T00:41:19.577Z,64.90
2018-07-17T00:43:47.805Z,65.30
2018-07-17T00:46:16.029Z,65.40
2018-07-17T00:48:44.288Z,65.50
2018-07-17T00:51:12.529Z,65.40
2018-07-17T00:53:40.910Z,65.40
2018-07-17T00:56:09.125Z,65.30
2018-07-17T00:58:37.340Z,65.20
2018-07-17T01:01:04.897Z,65.00
2018-07-17T01:03:38.415Z,64.90
2018-07-17T01:06:12.076Z,65.00
2018-07-17T01:08:45.803Z,64.90
2018-07-17T01:11:19.353Z,65.00
2018-07-17T01:13:52.941Z,65.10
2018-07-17T01:16:21.196Z,65.10
2018-07-17T01:18:49.420Z,65.40
2018-07-17T01:21:17.657Z,65.40
2018-07-17T01:23:45.911Z,65.30
2018-07-17T01:28:42.372Z,65.40
2018-07-17T01:31:10.592Z,65.40
2018-07-17T01:33:38.852Z,65.40
2018-07-17T01:36:07.063Z,65.50
2018-07-17T01:38:35.318Z,65.60
2018-07-17T01:41:03.501Z,65.70
2018-07-17T01:43:31.753Z,65.70
2018-07-17T01:45:59.996Z,65.70
2018-07-17T01:48:28.284Z,65.80
2018-07-17T01:50:56.512Z,65.60
2018-07-17T01:53:24.708Z,65.60
2018-07-17T01:55:52.937Z,66.20
2018-07-17T01:58:21.420Z,65.40
2018-07-17T02:00:49.662Z,65.60
2018-07-17T02:03:17.867Z,65.70
2018-07-17T02:05:46.137Z,65.80
2018-07-17T02:08:14.389Z,65.90
2018-07-17T02:10:42.620Z,65.90
2018-07-17T02:13:10.842Z,65.80
2018-07-17T02:15:39.053Z,65.80
2018-07-17T02:18:07.283Z,65.90
2018-07-17T02:20:35.673Z,66.00
2018-07-17T02:23:03.919Z,66.00
2018-07-17T02:25:32.121Z,65.90
2018-07-17T02:28:00.333Z,66.10
2018-07-17T02:30:28.557Z,66.20
2018-07-17T02:32:56.816Z,66.20
2018-07-17T02:37:53.033Z,66.10
2018-07-17T02:40:21.260Z,66.10
2018-07-17T02:42:49.513Z,66.20
2018-07-17T02:45:17.760Z,66.10
2018-07-17T02:47:45.993Z,66.20
2018-07-17T02:50:14.196Z,66.20
2018-07-17T02:52:42.435Z,66.30
2018-07-17T02:55:10.656Z,66.20
2018-07-17T02:57:38.935Z,66.30
2018-07-17T03:00:07.194Z,66.20
2018-07-17T03:02:35.400Z,66.10
2018-07-17T03:05:03.617Z,66.10
2018-07-17T03:07:31.872Z,66.10
2018-07-17T03:10:00.129Z,66.10
2018-07-17T03:12:28.378Z,66.20
2018-07-17T03:14:56.610Z,66.20
2018-07-17T03:17:24.818Z,66.20
2018-07-17T03:19:53.085Z,66.10
2018-07-17T03:22:21.293Z,66.30
2018-07-17T03:24:49.492Z,66.20
2018-07-17T03:27:17.719Z,66.30
2018-07-17T03:29:45.931Z,66.30
2018-07-17T03:32:14.197Z,66.20
2018-07-17T03:34:42.433Z,66.00
2018-07-17T03:37:10.655Z,66.00
2018-07-17T03:42:06.913Z,65.80
2018-07-17T03:44:35.152Z,65.60
2018-07-17T03:47:03.388Z,65.80
2018-07-17T03:49:31.597Z,65.90
2018-07-17T03:51:59.808Z,65.90
2018-07-17T03:54:28.136Z,65.90
2018-07-17T03:56:56.613Z,66.10
2018-07-17T03:59:24.852Z,66.10
2018-07-17T04:01:53.289Z,66.10
2018-07-17T04:04:21.572Z,66.10
2018-07-17T04:06:49.836Z,66.60
2018-07-17T04:09:19.032Z,66.20
2018-07-17T04:11:47.263Z,66.40
2018-07-17T04:14:15.482Z,66.30
2018-07-17T04:16:49.261Z,66.40
2018-07-17T04:19:17.487Z,66.20
2018-07-17T04:21:45.713Z,66.20
2018-07-17T04:24:13.913Z,66.30
2018-07-17T04:26:42.177Z,66.40
2018-07-17T04:29:10.434Z,66.50
2018-07-17T04:31:38.717Z,66.50
2018-07-17T04:34:06.918Z,66.60
2018-07-17T04:36:35.155Z,66.80
2018-07-17T04:39:04.025Z,66.70
2018-07-17T04:41:32.253Z,66.50
2018-07-17T04:44:00.512Z,66.30
2018-07-17T04:46:28.752Z,66.10
2018-07-17T04:48:56.980Z,66.00
2018-07-17T04:51:25.248Z,65.90
2018-07-17T04:53:53.525Z,65.90
2018-07-17T04:56:21.728Z,65.80
2018-07-17T04:58:49.956Z,65.60
2018-07-17T05:01:18.389Z,65.50
2018-07-17T05:03:46.641Z,65.60
2018-07-17T05:06:14.948Z,65.40
2018-07-17T05:08:43.225Z,65.40
2018-07-17T05:11:11.458Z,65.30
2018-07-17T05:13:39.698Z,65.10
2018-07-17T05:16:07.967Z,65.00
2018-07-17T05:18:36.368Z,64.90
2018-07-17T05:21:04.658Z,64.80
2018-07-17T05:23:33.172Z,64.60
2018-07-17T05:26:01.411Z,64.30
2018-07-17T05:28:29.727Z,64.10
2018-07-17T05:30:57.994Z,63.90
2018-07-17T05:33:26.289Z,63.90
2018-07-17T05:35:54.588Z,63.70
2018-07-17T05:38:22.796Z,63.50
2018-07-17T05:40:51.141Z,63.30
2018-07-17T05:43:19.377Z,63.10
2018-07-17T05:45:47.590Z,62.90
2018-07-17T05:48:15.861Z,62.90
2018-07-17T05:50:44.290Z,62.80
2018-07-17T05:53:12.553Z,62.70
2018-07-17T05:55:40.801Z,62.60
2018-07-17T05:58:09.026Z,62.60
2018-07-17T06:00:37.248Z,62.50
2018-07-17T06:03:05.483Z,62.50
2018-07-17T06:05:33.958Z,62.40
2018-07-17T06:08:02.387Z,62.40
2018-07-17T06:10:30.664Z,62.20
2018-07-17T06:12:58.970Z,62.20
2018-07-17T06:15:27.266Z,62.00
2018-07-17T06:17:55.516Z,62.10
2018-07-17T06:22:58.562Z,62.10
2018-07-17T06:25:26.902Z,62.10
2018-07-17T06:27:56.355Z,62.20
2018-07-17T06:30:24.704Z,62.00
2018-07-17T06:32:53.013Z,61.90
2018-07-17T06:35:21.369Z,61.60
2018-07-17T06:37:49.614Z,61.50
2018-07-17T06:40:17.888Z,61.50
2018-07-17T06:42:46.108Z,61.40
2018-07-17T06:45:14.345Z,61.40
2018-07-17T06:47:42.600Z,61.20
2018-07-17T06:50:10.863Z,61.10
2018-07-17T06:52:39.130Z,61.20
2018-07-17T06:55:07.412Z,61.30
2018-07-17T06:57:35.633Z,61.30
2018-07-17T07:00:03.965Z,61.30
2018-07-17T07:02:32.231Z,61.20
2018-07-17T07:05:01.291Z,61.20
2018-07-17T07:07:29.557Z,61.30
2018-07-17T07:09:57.769Z,61.10
2018-07-17T07:12:26.025Z,60.90
2018-07-17T07:14:54.268Z,60.60
2018-07-17T07:17:22.545Z,60.60
2018-07-17T07:19:50.749Z,60.60
2018-07-17T07:22:18.999Z,60.60
2018-07-17T07:24:47.209Z,60.40
2018-07-17T07:27:15.501Z,60.10
2018-07-17T07:29:44.001Z,60.20
2018-07-17T07:32:12.541Z,60.00
2018-07-17T07:34:40.799Z,59.90
2018-07-17T07:37:09.090Z,59.90
2018-07-17T07:39:37.332Z,59.60
2018-07-17T07:42:05.644Z,59.70
2018-07-17T07:47:01.856Z,59.90
2018-07-17T07:49:30.113Z,60.00
2018-07-17T07:51:58.414Z,60.10
2018-07-17T07:54:26.660Z,60.00
2018-07-17T07:56:54.936Z,59.70
2018-07-17T07:59:23.176Z,59.60
2018-07-17T08:01:51.401Z,59.80
2018-07-17T08:04:19.647Z,60.00
2018-07-17T08:06:47.897Z,59.90
2018-07-17T08:09:16.189Z,59.60
2018-07-17T08:11:44.469Z,59.30
2018-07-17T08:14:12.719Z,59.00
2018-07-17T08:16:41.003Z,58.50
2018-07-17T08:19:09.329Z,58.70
2018-07-17T08:21:37.625Z,57.70
2018-07-17T08:24:05.876Z,57.40
2018-07-17T08:26:34.100Z,57.00
2018-07-17T08:29:02.405Z,56.70
2018-07-17T08:31:30.801Z,56.40
2018-07-17T08:33:59.149Z,55.90
2018-07-17T08:36:27.465Z,55.50
2018-07-17T08:38:56.231Z,55.10
2018-07-17T08:41:24.489Z,54.90
2018-07-17T08:43:52.908Z,54.90
2018-07-17T08:46:21.366Z,54.70
2018-07-17T08:48:49.594Z,54.90
2018-07-17T08:51:17.857Z,54.40
2018-07-17T08:53:46.400Z,53.50
2018-07-17T08:56:14.649Z,52.80
2018-07-17T08:58:42.848Z,52.10
2018-07-17T09:01:11.104Z,51.60
2018-07-17T09:03:39.310Z,50.90
2018-07-17T09:06:07.549Z,50.40
2018-07-17T09:08:35.797Z,49.70
2018-07-17T09:11:04.035Z,49.00
2018-07-17T09:13:32.278Z,48.40
2018-07-17T09:16:00.496Z,47.80
2018-07-17T09:18:28.797Z,47.50
2018-07-17T09:20:57.029Z,47.20
2018-07-17T09:23:25.261Z,46.90
2018-07-17T09:25:53.480Z,46.90
2018-07-17T09:28:21.730Z,46.80
2018-07-17T09:30:56.025Z,46.70
2018-07-17T09:33:24.244Z,46.50
2018-07-17T09:35:52.520Z,46.50
2018-07-17T09:38:20.769Z,46.40
2018-07-17T09:40:49.020Z,46.30
2018-07-17T09:43:17.217Z,46.20
2018-07-17T09:45:45.444Z,45.90
2018-07-17T09:48:13.676Z,45.60
2018-07-17T09:50:42.125Z,45.20
2018-07-17T09:53:10.352Z,45.00
2018-07-17T09:55:38.577Z,44.90
2018-07-17T09:58:06.776Z,44.90
2018-07-17T10:03:07.637Z,45.10
2018-07-17T10:05:35.868Z,45.50
2018-07-17T10:08:04.137Z,45.60
2018-07-17T10:10:32.361Z,45.30
2018-07-17T10:13:00.589Z,45.00
2018-07-17T10:15:28.818Z,44.70
2018-07-17T10:17:57.080Z,44.60
2018-07-17T10:20:25.737Z,44.60
2018-07-17T10:22:53.960Z,44.70
2018-07-17T10:25:22.180Z,44.70
2018-07-17T10:27:50.396Z,44.60
2018-07-17T10:32:46.732Z,43.80
2018-07-17T10:35:14.993Z,43.10
2018-07-17T10:37:43.222Z,42.70
2018-07-17T10:40:11.745Z,42.50
2018-07-17T10:42:40.283Z,42.30
2018-07-17T10:45:08.513Z,42.10
2018-07-17T10:47:36.848Z,41.70
2018-07-17T10:50:05.032Z,41.40
2018-07-17T10:52:33.293Z,41.20
2018-07-17T10:55:01.587Z,41.10
2018-07-17T10:57:29.869Z,40.90
2018-07-17T10:59:58.146Z,40.60
2018-07-17T11:02:26.482Z,40.50
2018-07-17T11:04:54.720Z,40.40
2018-07-17T11:07:23.088Z,40.50
2018-07-17T11:09:51.639Z,40.80
2018-07-17T11:12:19.996Z,41.00
2018-07-17T11:14:48.597Z,41.10
2018-07-17T11:17:16.903Z,41.00
2018-07-17T11:19:45.371Z,40.70
2018-07-17T11:22:13.709Z,40.60
2018-07-17T11:24:41.953Z,40.30
2018-07-17T11:27:10.181Z,39.60
2018-07-17T11:29:38.480Z,39.20
2018-07-17T11:32:07.021Z,38.80
2018-07-17T11:34:35.417Z,38.40
2018-07-17T11:37:03.674Z,37.70
2018-07-17T11:39:31.953Z,37.40
2018-07-17T11:42:00.226Z,37.40
2018-07-17T11:44:28.564Z,37.40
2018-07-17T11:46:56.870Z,37.30
2018-07-17T11:49:25.155Z,36.90
2018-07-17T11:51:53.636Z,36.90
2018-07-17T11:54:21.900Z,37.10
2018-07-17T11:56:50.164Z,37.30
2018-07-17T11:59:18.463Z,37.40
2018-07-17T12:01:46.853Z,37.40
2018-07-17T12:04:15.100Z,37.30
2018-07-17T12:06:43.369Z,37.10
2018-07-17T12:09:11.702Z,37.00
2018-07-17T12:11:40.461Z,36.70
2018-07-17T12:14:08.681Z,36.40
2018-07-17T12:16:36.939Z,36.20
2018-07-17T12:19:05.358Z,36.20
2018-07-17T12:21:33.613Z,35.90
2018-07-17T12:24:01.841Z,35.80
2018-07-17T12:26:30.328Z,35.70
2018-07-17T12:28:58.589Z,35.50
2018-07-17T12:31:26.873Z,35.30
2018-07-17T12:33:55.262Z,35.00
2018-07-17T12:36:23.544Z,35.00
2018-07-17T12:38:51.779Z,34.90
2018-07-17T12:41:20.097Z,34.90
2018-07-17T12:43:48.420Z,35.00
2018-07-17T12:46:17.556Z,35.00
2018-07-17T12:48:45.805Z,34.90
2018-07-17T12:51:14.076Z,34.70
2018-07-17T12:53:42.308Z,34.50
2018-07-17T12:56:10.568Z,34.10
2018-07-17T12:58:38.797Z,33.60
2018-07-17T13:01:07.065Z,33.20
2018-07-17T13:03:35.293Z,32.90
2018-07-17T13:06:03.543Z,32.70
2018-07-17T13:08:31.774Z,32.50
2018-07-17T13:11:00.018Z,32.60
2018-07-17T13:13:28.300Z,32.70
2018-07-17T13:15:56.744Z,32.90
2018-07-17T13:18:24.962Z,32.90
2018-07-17T13:20:53.229Z,33.00
2018-07-17T13:23:21.653Z,33.10
2018-07-17T13:25:51.187Z,33.00
2018-07-17T13:28:19.427Z,32.70
2018-07-17T13:30:47.653Z,32.30
2018-07-17T13:33:15.901Z,31.90
2018-07-17T13:35:44.104Z,31.60
2018-07-17T13:38:12.385Z,31.40
2018-07-17T13:40:40.592Z,31.10
2018-07-17T13:43:08.901Z,31.10
2018-07-17T13:45:37.310Z,31.10
2018-07-17T13:48:05.593Z,30.60
2018-07-17T13:50:33.959Z,30.10
2018-07-17T13:53:02.243Z,29.70
2018-07-17T13:55:30.450Z,29.00
2018-07-17T13:57:58.641Z,29.10
2018-07-17T14:00:26.880Z,29.30
2018-07-17T14:02:55.168Z,29.40
2018-07-17T14:05:23.385Z,29.40
2018-07-17T14:07:51.600Z,29.40
2018-07-17T14:10:19.858Z,29.40
2018-07-17T14:12:48.243Z,29.40
2018-07-17T14:15:16.616Z,29.40
2018-07-17T14:17:44.886Z,29.50
2018-07-17T14:20:13.109Z,29.50
2018-07-17T14:22:41.312Z,29.40
2018-07-17T14:25:10.149Z,29.30
2018-07-17T14:27:38.367Z,29.40
2018-07-17T14:30:07.455Z,29.60
2018-07-17T14:32:35.670Z,30.00
2018-07-17T14:35:04.265Z,30.60
2018-07-17T14:37:32.477Z,31.20
2018-07-17T14:40:00.733Z,31.80
2018-07-17T14:42:29.037Z,32.10
2018-07-17T14:44:57.401Z,32.50
2018-07-17T14:47:25.606Z,32.80
2018-07-17T14:49:53.812Z,33.20
2018-07-17T14:52:22.513Z,33.50
2018-07-17T14:54:50.730Z,33.80
2018-07-17T14:57:18.995Z,34.00
2018-07-17T14:59:47.319Z,34.10
2018-07-17T15:02:15.711Z,34.40
2018-07-17T15:04:43.954Z,34.60
2018-07-17T15:07:12.280Z,34.70
2018-07-17T15:09:40.590Z,34.80
2018-07-17T15:12:08.720Z,34.90
2018-07-17T15:14:36.937Z,34.90
2018-07-17T15:17:05.389Z,34.80
2018-07-17T15:19:33.596Z,34.70
2018-07-17T15:22:02.127Z,34.60
2018-07-17T15:24:30.308Z,34.50
2018-07-17T15:26:58.549Z,34.30
2018-07-17T15:29:26.799Z,34.10
2018-07-17T15:31:55.045Z,33.80
2018-07-17T15:34:23.280Z,33.30
2018-07-17T15:36:51.515Z,32.80
2018-07-17T15:39:19.739Z,32.40
2018-07-17T15:41:47.961Z,32.00
2018-07-17T15:44:16.175Z,31.60
2018-07-17T15:46:44.397Z,31.30
2018-07-17T15:49:12.618Z,31.10
2018-07-17T15:51:40.869Z,31.10
2018-07-17T15:54:09.122Z,30.90
2018-07-17T15:56:37.341Z,30.90
2018-07-17T16:01:33.760Z,30.70
2018-07-17T16:04:02.697Z,30.50
2018-07-17T16:06:31.187Z,30.40
2018-07-17T16:08:59.427Z,30.30
2018-07-17T16:11:27.617Z,30.10
2018-07-17T16:13:55.969Z,30.20
2018-07-17T16:16:24.075Z,30.30
2018-07-17T16:18:52.270Z,30.60
2018-07-17T16:21:20.490Z,30.80
2018-07-17T16:23:48.716Z,31.00
2018-07-17T16:26:16.941Z,31.10
2018-07-17T16:28:45.196Z,31.30
2018-07-17T16:31:13.452Z,31.40
2018-07-17T16:33:41.678Z,31.50
2018-07-17T16:38:44.720Z,31.80
2018-07-17T16:41:13.096Z,32.10
2018-07-17T16:43:41.292Z,32.20
2018-07-17T16:46:09.508Z,32.20
2018-07-17T16:48:37.733Z,32.20
2018-07-17T16:51:06.029Z,32.70
2018-07-17T16:53:34.378Z,32.20
2018-07-17T16:56:02.755Z,32.30
2018-07-17T16:58:30.959Z,32.40
2018-07-17T17:00:59.233Z,32.60
2018-07-17T17:03:27.504Z,32.80
2018-07-17T17:05:55.726Z,34.00
2018-07-17T17:08:24.240Z,35.40
2018-07-17T17:10:52.458Z,35.10
2018-07-17T17:13:20.680Z,34.60
2018-07-17T17:15:48.888Z,34.30
2018-07-17T17:18:17.105Z,34.10
2018-07-17T17:20:45.338Z,33.90
2018-07-17T17:23:13.552Z,33.60
2018-07-17T17:25:41.777Z,33.30
2018-07-17T17:28:10.114Z,33.20
2018-07-17T17:33:06.312Z,33.30
2018-07-17T17:35:34.664Z,33.20
2018-07-17T17:38:03.169Z,33.10
2018-07-17T17:40:31.417Z,33.10
2018-07-17T17:42:59.668Z,34.60
2018-07-17T17:45:27.916Z,35.20
2018-07-17T17:47:56.124Z,35.10
2018-07-17T17:50:24.517Z,34.90
2018-07-17T17:52:52.736Z,34.80
2018-07-17T17:55:20.937Z,34.80
2018-07-17T17:57:49.180Z,34.80
2018-07-17T18:00:17.414Z,34.90
2018-07-17T18:02:45.708Z,35.00
2018-07-17T18:05:13.905Z,35.00
2018-07-17T18:07:42.192Z,35.20
2018-07-17T18:10:10.413Z,35.30
2018-07-17T18:12:38.920Z,35.40
2018-07-17T18:15:07.137Z,35.50
2018-07-17T18:17:35.350Z,35.70
2018-07-17T18:20:03.818Z,35.70
2018-07-17T18:22:32.021Z,35.80
2018-07-17T18:25:00.281Z,35.70
2018-07-17T18:27:28.500Z,35.70
2018-07-17T18:29:56.737Z,35.60
2018-07-17T18:32:24.941Z,35.70
2018-07-17T18:34:53.144Z,35.90
2018-07-17T18:37:21.388Z,36.00
2018-07-17T18:39:49.644Z,36.10
2018-07-17T18:42:18.021Z,36.30
2018-07-17T18:44:46.075Z,36.60
2018-07-17T18:47:14.282Z,36.90
2018-07-17T18:49:42.856Z,37.10
2018-07-17T18:52:11.100Z,37.30
2018-07-17T18:54:39.325Z,37.50
2018-07-17T18:57:07.961Z,37.80
2018-07-17T18:59:36.160Z,38.00
2018-07-17T19:02:04.434Z,38.20
2018-07-17T19:04:32.669Z,38.40
2018-07-17T19:07:00.941Z,38.60
2018-07-17T19:09:29.152Z,38.80
2018-07-17T19:11:57.373Z,39.00
2018-07-17T19:14:25.656Z,39.10
2018-07-17T19:16:53.956Z,39.20
2018-07-17T19:19:22.100Z,39.40
2018-07-17T19:21:50.427Z,39.50
2018-07-17T19:24:19.648Z,39.60
2018-07-17T19:26:47.897Z,39.80
2018-07-17T19:29:16.200Z,40.00
2018-07-17T19:31:44.400Z,40.30
2018-07-17T19:34:12.636Z,40.40
2018-07-17T19:36:40.873Z,40.40
2018-07-17T19:41:39.305Z,40.50
2018-07-17T19:44:07.525Z,40.50
2018-07-17T19:46:35.754Z,40.50
2018-07-17T19:49:04.136Z,40.50
2018-07-17T19:51:32.345Z,40.50
2018-07-17T19:54:00.593Z,40.60
2018-07-17T19:56:28.807Z,40.70
2018-07-17T19:58:57.094Z,40.90
2018-07-17T20:01:25.312Z,41.00
2018-07-17T20:03:53.572Z,41.10
2018-07-17T20:06:21.820Z,41.30
2018-07-17T20:08:50.059Z,41.40
2018-07-17T20:11:18.256Z,41.50
2018-07-17T20:13:46.469Z,41.70
2018-07-17T20:16:14.700Z,41.80
2018-07-17T20:18:42.941Z,42.00
2018-07-17T20:21:11.159Z,42.00
2018-07-17T20:23:39.468Z,41.90
2018-07-17T20:26:07.884Z,41.80
2018-07-17T20:28:36.116Z,41.80
2018-07-17T20:31:04.332Z,41.80
2018-07-17T20:33:32.565Z,41.90
2018-07-17T20:36:00.970Z,42.00
2018-07-17T20:38:29.188Z,42.00
2018-07-17T20:40:57.447Z,42.00
2018-07-17T20:43:26.707Z,42.10
2018-07-17T20:45:54.900Z,42.30
2018-07-17T20:48:23.136Z,42.40
2018-07-17T20:50:51.328Z,42.50
2018-07-17T20:53:19.525Z,42.60
2018-07-17T20:55:47.781Z,42.70
2018-07-17T20:58:16.005Z,42.90
2018-07-17T21:00:44.356Z,42.90
2018-07-17T21:03:12.572Z,43.00
2018-07-17T21:05:40.789Z,43.00
2018-07-17T21:08:09.173Z,43.10
2018-07-17T21:10:37.388Z,43.20
2018-07-17T21:13:05.653Z,43.30
2018-07-17T21:15:33.816Z,43.50
2018-07-17T21:18:02.108Z,43.50
2018-07-17T21:20:30.564Z,43.60
2018-07-17T21:22:58.776Z,43.70
2018-07-17T21:25:27.099Z,43.90
2018-07-17T21:27:55.245Z,44.00
2018-07-17T21:30:23.495Z,44.00
2018-07-17T21:32:51.745Z,43.90
2018-07-17T21:35:19.943Z,44.10
2018-07-17T21:37:48.158Z,44.20
2018-07-17T21:40:16.380Z,44.20
2018-07-17T21:42:44.853Z,44.30
2018-07-17T21:45:13.304Z,44.30
2018-07-17T21:47:41.520Z,44.30
2018-07-17T21:50:09.736Z,44.30
2018-07-17T21:52:37.956Z,44.30
2018-07-17T21:55:06.184Z,44.30
2018-07-17T21:57:34.417Z,44.40
2018-07-17T22:00:02.948Z,44.60
2018-07-17T22:02:31.173Z,44.60
2018-07-17T22:04:59.384Z,44.80
2018-07-17T22:07:27.641Z,44.80
2018-07-17T22:09:55.849Z,45.00
2018-07-17T22:12:24.112Z,45.20
2018-07-17T22:14:52.332Z,45.20
2018-07-17T22:17:20.557Z,45.30
2018-07-17T22:19:49.033Z,45.30
2018-07-17T22:22:17.244Z,45.20
2018-07-17T22:24:45.453Z,45.30
2018-07-17T22:27:13.681Z,45.30
2018-07-17T22:29:41.905Z,45.30
2018-07-17T22:32:10.169Z,45.30
2018-07-17T22:34:38.384Z,45.40
2018-07-17T22:37:06.612Z,45.50
2018-07-17T22:39:34.824Z,45.60
2018-07-17T22:42:03.044Z,45.80
2018-07-17T22:44:31.300Z,46.00
2018-07-17T22:46:59.548Z,46.10
2018-07-17T22:49:27.763Z,46.30
2018-07-17T22:51:55.976Z,46.40
2018-07-17T22:54:24.229Z,47.00
2018-07-17T22:56:52.449Z,46.60
2018-07-17T22:59:21.004Z,46.80
2018-07-17T23:01:49.210Z,46.90
2018-07-17T23:04:17.728Z,46.90
2018-07-17T23:06:45.949Z,46.80
2018-07-17T23:09:14.164Z,46.80
2018-07-17T23:11:42.360Z,46.90
2018-07-17T23:14:10.580Z,47.00
2018-07-17T23:16:38.807Z,47.20
2018-07-17T23:19:07.285Z,47.30
2018-07-17T23:21:35.594Z,47.50
2018-07-17T23:24:03.846Z,47.70
2018-07-17T23:26:32.049Z,47.70
2018-07-17T23:29:00.260Z,47.80
2018-07-17T23:31:28.536Z,47.80
2018-07-17T23:33:56.778Z,47.90
2018-07-17T23:36:24.984Z,48.00
2018-07-17T23:38:53.204Z,48.10
2018-07-17T23:41:21.396Z,48.80
2018-07-17T23:43:49.693Z,48.30
2018-07-17T23:46:17.919Z,48.40
2018-07-17T23:48:46.152Z,48.40
2018-07-17T23:51:14.357Z,48.50
2018-07-17T23:53:42.568Z,48.60
2018-07-17T23:56:10.801Z,48.60
